Pagrindinis puslapis
METAR-TAF:

METAR-TAF

Oro uostai :

Egegik, Aliaska, Jungtinės Amerikos Valstijos

platuma: 58-11-07N, ilguma: 157-23-08W, Aukštis: 28 m

Dabartinis oras

Ataskaita buvo paskelbta 45 minutes, ne 17:56 UTC
Vėjas 10 kt iš Rytų/Pietryčių
Temperatūra -4°C
Drėgmė 93%
Slėgis 1011 hPa
Matomumas: 16.1 km
Giedras dangus

METAR: PAII 161756Z AUTO 12010KT 10SM CLR M04/M05 A2984 RMK AO2 SLP103 T10391050 11017 21050 58008 FZRANO

Laikas: 09:41 (18:41 UTC)


TAF: trūkstamas

Orai ataskaitas ir orų prognozės (METAR, TAF).

turimą stotys yra geltonos ir raudonos taškus žemėlapyje.

Perkelti pele per norėdami pamatyti stoties vardą.

Tada spustelėkite, norėdami matyti oro stebėjimo ir prognozės.

Norėdami pakeisti žemėlapį: spustelėkite ant žalios mygtukų su juodo kryžiaus žemyn,; žalią mygtuką su brūkšneliu, jei norite nutolinti; arba žalių rodyklių gretimoms žemėlapius.


METAR-TAF: